sensor_id;sensor_type;location;lat;lon;timestamp;P1;durP1;ratioP1;P2;durP2;ratioP2
13720;SDS011;6932;51.438;5.470;2023-11-21T00:00:29;13.33;;;8.07;;
13720;SDS011;6932;51.438;5.470;2023-11-21T00:02:54;12.07;;;7.83;;
13720;SDS011;6932;51.438;5.470;2023-11-21T00:05:20;12.53;;;8.27;;
13720;SDS011;6932;51.438;5.470;2023-11-21T00:07:48;11.93;;;7.53;;
13720;SDS011;6932;51.438;5.470;2023-11-21T00:10:14;12.77;;;8.00;;
13720;SDS011;6932;51.438;5.470;2023-11-21T00:12:40;11.77;;;7.57;;
13720;SDS011;6932;51.438;5.470;2023-11-21T00:15:08;12.07;;;7.97;;
13720;SDS011;6932;51.438;5.470;2023-11-21T00:17:36;12.70;;;7.77;;
13720;SDS011;6932;51.438;5.470;2023-11-21T00:20:03;12.67;;;7.30;;
13720;SDS011;6932;51.438;5.470;2023-11-21T00:22:32;11.53;;;7.60;;
13720;SDS011;6932;51.438;5.470;2023-11-21T00:24:59;12.23;;;7.33;;
13720;SDS011;6932;51.438;5.470;2023-11-21T00:27:25;12.20;;;7.50;;
13720;SDS011;6932;51.438;5.470;2023-11-21T00:29:51;11.87;;;7.40;;
13720;SDS011;6932;51.438;5.470;2023-11-21T00:32:16;11.73;;;7.30;;
13720;SDS011;6932;51.438;5.470;2023-11-21T00:34:42;11.80;;;7.33;;
13720;SDS011;6932;51.438;5.470;2023-11-21T00:37:08;10.90;;;7.23;;
13720;SDS011;6932;51.438;5.470;2023-11-21T00:39:33;11.60;;;7.17;;
13720;SDS011;6932;51.438;5.470;2023-11-21T00:42:00;11.33;;;7.33;;
13720;SDS011;6932;51.438;5.470;2023-11-21T00:44:25;11.43;;;6.83;;
13720;SDS011;6932;51.438;5.470;2023-11-21T00:46:51;11.03;;;7.10;;
13720;SDS011;6932;51.438;5.470;2023-11-21T00:49:17;11.70;;;7.20;;
13720;SDS011;6932;51.438;5.470;2023-11-21T00:51:43;11.77;;;7.33;;
13720;SDS011;6932;51.438;5.470;2023-11-21T00:54:08;12.40;;;7.37;;
13720;SDS011;6932;51.438;5.470;2023-11-21T00:56:34;11.87;;;7.73;;
13720;SDS011;6932;51.438;5.470;2023-11-21T00:59:00;13.63;;;7.70;;
13720;SDS011;6932;51.438;5.470;2023-11-21T01:01:25;11.87;;;7.53;;
13720;SDS011;6932;51.438;5.470;2023-11-21T01:03:51;14.37;;;8.00;;
13720;SDS011;6932;51.438;5.470;2023-11-21T01:06:17;11.93;;;7.40;;
13720;SDS011;6932;51.438;5.470;2023-11-21T01:08:43;13.50;;;8.50;;
13720;SDS011;6932;51.438;5.470;2023-11-21T01:11:09;11.73;;;7.63;;
13720;SDS011;6932;51.438;5.470;2023-11-21T01:13:37;12.37;;;7.90;;
13720;SDS011;6932;51.438;5.470;2023-11-21T01:16:04;13.83;;;7.90;;
13720;SDS011;6932;51.438;5.470;2023-11-21T01:18:31;12.93;;;7.60;;
13720;SDS011;6932;51.438;5.470;2023-11-21T01:20:58;11.43;;;7.93;;
13720;SDS011;6932;51.438;5.470;2023-11-21T01:23:25;11.50;;;7.50;;
13720;SDS011;6932;51.438;5.470;2023-11-21T01:25:52;10.53;;;7.43;;
13720;SDS011;6932;51.438;5.470;2023-11-21T01:28:18;15.80;;;7.83;;
13720;SDS011;6932;51.438;5.470;2023-11-21T01:30:44;12.00;;;8.17;;
13720;SDS011;6932;51.438;5.470;2023-11-21T01:33:11;12.63;;;8.27;;
13720;SDS011;6932;51.438;5.470;2023-11-21T01:35:36;11.70;;;7.60;;
13720;SDS011;6932;51.438;5.470;2023-11-21T01:38:02;12.30;;;7.87;;
13720;SDS011;6932;51.438;5.470;2023-11-21T01:40:29;11.40;;;7.80;;
13720;SDS011;6932;51.438;5.470;2023-11-21T01:42:55;14.17;;;8.20;;
13720;SDS011;6932;51.438;5.470;2023-11-21T01:45:22;11.77;;;7.93;;
13720;SDS011;6932;51.438;5.470;2023-11-21T01:47:50;12.30;;;7.80;;
13720;SDS011;6932;51.438;5.470;2023-11-21T01:50:16;11.30;;;7.50;;
13720;SDS011;6932;51.438;5.470;2023-11-21T01:52:44;13.33;;;8.00;;
13720;SDS011;6932;51.438;5.470;2023-11-21T01:55:11;12.10;;;8.03;;
13720;SDS011;6932;51.438;5.470;2023-11-21T01:57:39;12.27;;;8.30;;
13720;SDS011;6932;51.438;5.470;2023-11-21T02:00:05;13.33;;;8.07;;
13720;SDS011;6932;51.438;5.470;2023-11-21T02:02:43;12.93;;;8.00;;
13720;SDS011;6932;51.438;5.470;2023-11-21T02:05:17;11.93;;;7.77;;
13720;SDS011;6932;51.438;5.470;2023-11-21T02:07:45;14.20;;;8.33;;
13720;SDS011;6932;51.438;5.470;2023-11-21T02:10:14;13.23;;;8.53;;
13720;SDS011;6932;51.438;5.470;2023-11-21T02:12:41;12.63;;;8.03;;
13720;SDS011;6932;51.438;5.470;2023-11-21T02:15:11;13.40;;;9.07;;
13720;SDS011;6932;51.438;5.470;2023-11-21T02:17:45;14.63;;;9.23;;
13720;SDS011;6932;51.438;5.470;2023-11-21T02:20:16;13.40;;;8.90;;
13720;SDS011;6932;51.438;5.470;2023-11-21T02:22:43;14.80;;;9.13;;
13720;SDS011;6932;51.438;5.470;2023-11-21T02:25:15;16.10;;;9.80;;
13720;SDS011;6932;51.438;5.470;2023-11-21T02:27:40;13.80;;;9.27;;
13720;SDS011;6932;51.438;5.470;2023-11-21T02:30:08;12.87;;;9.10;;
13720;SDS011;6932;51.438;5.470;2023-11-21T02:32:38;13.53;;;8.97;;
13720;SDS011;6932;51.438;5.470;2023-11-21T02:35:05;12.23;;;8.47;;
13720;SDS011;6932;51.438;5.470;2023-11-21T02:37:33;13.33;;;8.80;;
13720;SDS011;6932;51.438;5.470;2023-11-21T02:40:00;13.63;;;8.83;;
13720;SDS011;6932;51.438;5.470;2023-11-21T02:42:29;12.40;;;8.57;;
13720;SDS011;6932;51.438;5.470;2023-11-21T02:44:55;13.13;;;8.80;;
13720;SDS011;6932;51.438;5.470;2023-11-21T02:47:21;14.63;;;9.13;;
13720;SDS011;6932;51.438;5.470;2023-11-21T02:49:48;14.30;;;9.50;;
13720;SDS011;6932;51.438;5.470;2023-11-21T02:52:14;14.23;;;9.67;;
13720;SDS011;6932;51.438;5.470;2023-11-21T02:54:40;14.43;;;9.43;;
13720;SDS011;6932;51.438;5.470;2023-11-21T02:57:06;14.30;;;9.77;;
13720;SDS011;6932;51.438;5.470;2023-11-21T02:59:32;13.17;;;9.37;;
13720;SDS011;6932;51.438;5.470;2023-11-21T03:01:58;15.47;;;9.97;;
13720;SDS011;6932;51.438;5.470;2023-11-21T03:04:23;15.07;;;8.60;;
13720;SDS011;6932;51.438;5.470;2023-11-21T03:06:49;12.97;;;8.83;;
13720;SDS011;6932;51.438;5.470;2023-11-21T03:09:15;13.63;;;9.17;;
13720;SDS011;6932;51.438;5.470;2023-11-21T03:11:41;12.97;;;9.20;;
13720;SDS011;6932;51.438;5.470;2023-11-21T03:14:07;13.97;;;9.37;;
13720;SDS011;6932;51.438;5.470;2023-11-21T03:16:32;13.80;;;9.77;;
13720;SDS011;6932;51.438;5.470;2023-11-21T03:18:58;13.37;;;9.43;;
13720;SDS011;6932;51.438;5.470;2023-11-21T03:21:24;12.60;;;8.97;;
13720;SDS011;6932;51.438;5.470;2023-11-21T03:23:51;14.10;;;9.20;;
13720;SDS011;6932;51.438;5.470;2023-11-21T03:26:17;13.20;;;9.37;;
13720;SDS011;6932;51.438;5.470;2023-11-21T03:28:43;13.60;;;9.30;;
13720;SDS011;6932;51.438;5.470;2023-11-21T03:31:09;14.30;;;9.40;;
13720;SDS011;6932;51.438;5.470;2023-11-21T03:33:35;13.03;;;9.23;;
13720;SDS011;6932;51.438;5.470;2023-11-21T03:36:01;13.00;;;8.63;;
13720;SDS011;6932;51.438;5.470;2023-11-21T03:38:26;12.30;;;8.90;;
13720;SDS011;6932;51.438;5.470;2023-11-21T03:40:52;14.00;;;9.00;;
13720;SDS011;6932;51.438;5.470;2023-11-21T03:43:18;13.10;;;9.30;;
13720;SDS011;6932;51.438;5.470;2023-11-21T03:45:44;13.03;;;8.90;;
13720;SDS011;6932;51.438;5.470;2023-11-21T03:48:12;12.37;;;8.97;;
13720;SDS011;6932;51.438;5.470;2023-11-21T03:50:38;13.77;;;8.87;;
13720;SDS011;6932;51.438;5.470;2023-11-21T03:53:04;14.13;;;8.83;;
13720;SDS011;6932;51.438;5.470;2023-11-21T03:55:29;12.80;;;9.00;;
13720;SDS011;6932;51.438;5.470;2023-11-21T03:57:57;12.80;;;9.37;;
13720;SDS011;6932;51.438;5.470;2023-11-21T04:00:24;12.17;;;8.93;;
13720;SDS011;6932;51.438;5.470;2023-11-21T04:02:52;14.47;;;9.60;;
13720;SDS011;6932;51.438;5.470;2023-11-21T04:05:19;12.87;;;8.80;;
13720;SDS011;6932;51.438;5.470;2023-11-21T04:07:47;13.47;;;8.70;;
13720;SDS011;6932;51.438;5.470;2023-11-21T04:10:15;13.63;;;9.27;;
13720;SDS011;6932;51.438;5.470;2023-11-21T04:12:41;13.23;;;8.40;;
13720;SDS011;6932;51.438;5.470;2023-11-21T04:15:06;13.37;;;9.23;;
13720;SDS011;6932;51.438;5.470;2023-11-21T04:17:36;13.07;;;9.07;;
13720;SDS011;6932;51.438;5.470;2023-11-21T04:20:02;14.57;;;8.60;;
13720;SDS011;6932;51.438;5.470;2023-11-21T04:22:35;12.17;;;8.33;;
13720;SDS011;6932;51.438;5.470;2023-11-21T04:25:05;13.20;;;8.80;;
13720;SDS011;6932;51.438;5.470;2023-11-21T04:27:41;12.07;;;8.67;;
13720;SDS011;6932;51.438;5.470;2023-11-21T04:30:08;13.70;;;8.80;;
13720;SDS011;6932;51.438;5.470;2023-11-21T04:32:38;12.00;;;8.40;;
13720;SDS011;6932;51.438;5.470;2023-11-21T04:35:04;12.47;;;8.67;;
13720;SDS011;6932;51.438;5.470;2023-11-21T04:37:31;11.57;;;8.43;;
13720;SDS011;6932;51.438;5.470;2023-11-21T04:39:56;12.30;;;8.83;;
13720;SDS011;6932;51.438;5.470;2023-11-21T04:42:22;12.93;;;8.50;;
13720;SDS011;6932;51.438;5.470;2023-11-21T04:44:48;12.07;;;8.50;;
13720;SDS011;6932;51.438;5.470;2023-11-21T04:47:14;12.43;;;8.63;;
13720;SDS011;6932;51.438;5.470;2023-11-21T04:49:41;12.17;;;8.70;;
13720;SDS011;6932;51.438;5.470;2023-11-21T04:52:08;12.43;;;8.90;;
13720;SDS011;6932;51.438;5.470;2023-11-21T04:54:35;12.50;;;8.60;;
13720;SDS011;6932;51.438;5.470;2023-11-21T04:57:01;12.60;;;8.90;;
13720;SDS011;6932;51.438;5.470;2023-11-21T04:59:27;12.87;;;9.07;;
13720;SDS011;6932;51.438;5.470;2023-11-21T05:01:53;12.10;;;8.83;;
13720;SDS011;6932;51.438;5.470;2023-11-21T05:04:19;12.93;;;9.00;;
13720;SDS011;6932;51.438;5.470;2023-11-21T05:06:47;13.33;;;9.23;;
13720;SDS011;6932;51.438;5.470;2023-11-21T05:09:13;11.70;;;8.53;;
13720;SDS011;6932;51.438;5.470;2023-11-21T05:11:40;12.70;;;9.03;;
13720;SDS011;6932;51.438;5.470;2023-11-21T05:14:06;13.87;;;9.30;;
13720;SDS011;6932;51.438;5.470;2023-11-21T05:16:32;12.20;;;8.77;;
13720;SDS011;6932;51.438;5.470;2023-11-21T05:18:59;13.40;;;9.17;;
13720;SDS011;6932;51.438;5.470;2023-11-21T05:21:26;13.77;;;8.43;;
13720;SDS011;6932;51.438;5.470;2023-11-21T05:23:52;13.00;;;8.67;;
13720;SDS011;6932;51.438;5.470;2023-11-21T05:26:18;12.37;;;8.90;;
13720;SDS011;6932;51.438;5.470;2023-11-21T05:28:44;13.70;;;9.07;;
13720;SDS011;6932;51.438;5.470;2023-11-21T05:31:10;14.97;;;9.07;;
13720;SDS011;6932;51.438;5.470;2023-11-21T05:33:36;13.53;;;9.13;;
13720;SDS011;6932;51.438;5.470;2023-11-21T05:36:02;13.67;;;9.20;;
13720;SDS011;6932;51.438;5.470;2023-11-21T05:38:28;11.67;;;8.40;;
13720;SDS011;6932;51.438;5.470;2023-11-21T05:40:55;13.50;;;9.20;;
13720;SDS011;6932;51.438;5.470;2023-11-21T05:43:20;12.13;;;8.57;;
13720;SDS011;6932;51.438;5.470;2023-11-21T05:45:46;13.10;;;9.07;;
13720;SDS011;6932;51.438;5.470;2023-11-21T05:48:12;12.50;;;8.63;;
13720;SDS011;6932;51.438;5.470;2023-11-21T05:50:37;13.17;;;8.83;;
13720;SDS011;6932;51.438;5.470;2023-11-21T05:53:03;12.90;;;9.20;;
13720;SDS011;6932;51.438;5.470;2023-11-21T05:55:29;13.63;;;9.17;;
13720;SDS011;6932;51.438;5.470;2023-11-21T05:57:56;13.40;;;8.70;;
13720;SDS011;6932;51.438;5.470;2023-11-21T06:00:22;13.97;;;9.13;;
13720;SDS011;6932;51.438;5.470;2023-11-21T06:02:51;13.80;;;9.03;;
13720;SDS011;6932;51.438;5.470;2023-11-21T06:05:18;13.47;;;8.63;;
13720;SDS011;6932;51.438;5.470;2023-11-21T06:07:48;14.40;;;9.50;;
13720;SDS011;6932;51.438;5.470;2023-11-21T06:10:15;13.50;;;9.00;;
13720;SDS011;6932;51.438;5.470;2023-11-21T06:12:42;13.63;;;8.73;;
13720;SDS011;6932;51.438;5.470;2023-11-21T06:15:09;13.23;;;9.07;;
13720;SDS011;6932;51.438;5.470;2023-11-21T06:17:38;13.93;;;9.77;;
13720;SDS011;6932;51.438;5.470;2023-11-21T06:20:05;17.20;;;10.20;;
13720;SDS011;6932;51.438;5.470;2023-11-21T06:22:39;17.10;;;9.50;;
13720;SDS011;6932;51.438;5.470;2023-11-21T06:25:07;14.57;;;9.60;;
13720;SDS011;6932;51.438;5.470;2023-11-21T06:27:34;15.33;;;9.70;;
13720;SDS011;6932;51.438;5.470;2023-11-21T06:30:07;15.87;;;9.77;;
13720;SDS011;6932;51.438;5.470;2023-11-21T06:32:34;15.90;;;9.63;;
13720;SDS011;6932;51.438;5.470;2023-11-21T06:35:02;16.93;;;9.43;;
13720;SDS011;6932;51.438;5.470;2023-11-21T06:37:29;15.47;;;9.60;;
13720;SDS011;6932;51.438;5.470;2023-11-21T06:39:56;16.23;;;10.27;;
13720;SDS011;6932;51.438;5.470;2023-11-21T06:42:23;17.83;;;10.10;;
13720;SDS011;6932;51.438;5.470;2023-11-21T06:44:49;16.00;;;10.67;;
13720;SDS011;6932;51.438;5.470;2023-11-21T06:47:22;18.57;;;10.50;;
13720;SDS011;6932;51.438;5.470;2023-11-21T06:49:54;18.33;;;11.00;;
13720;SDS011;6932;51.438;5.470;2023-11-21T06:52:20;19.57;;;11.37;;
13720;SDS011;6932;51.438;5.470;2023-11-21T06:54:46;17.80;;;10.97;;
13720;SDS011;6932;51.438;5.470;2023-11-21T06:57:14;17.90;;;10.33;;
13720;SDS011;6932;51.438;5.470;2023-11-21T06:59:40;19.10;;;10.70;;
13720;SDS011;6932;51.438;5.470;2023-11-21T07:02:06;18.97;;;10.73;;
13720;SDS011;6932;51.438;5.470;2023-11-21T07:04:33;17.17;;;10.80;;
13720;SDS011;6932;51.438;5.470;2023-11-21T07:06:59;18.00;;;10.97;;
13720;SDS011;6932;51.438;5.470;2023-11-21T07:09:25;21.33;;;11.60;;
13720;SDS011;6932;51.438;5.470;2023-11-21T07:11:51;18.63;;;12.07;;
13720;SDS011;6932;51.438;5.470;2023-11-21T07:14:17;19.40;;;12.50;;
13720;SDS011;6932;51.438;5.470;2023-11-21T07:16:44;19.63;;;13.20;;
13720;SDS011;6932;51.438;5.470;2023-11-21T07:19:11;21.87;;;13.53;;
13720;SDS011;6932;51.438;5.470;2023-11-21T07:21:38;20.43;;;13.47;;
13720;SDS011;6932;51.438;5.470;2023-11-21T07:24:05;21.67;;;13.87;;
13720;SDS011;6932;51.438;5.470;2023-11-21T07:26:32;22.87;;;14.27;;
13720;SDS011;6932;51.438;5.470;2023-11-21T07:29:00;23.03;;;14.73;;
13720;SDS011;6932;51.438;5.470;2023-11-21T07:31:31;26.17;;;14.90;;
13720;SDS011;6932;51.438;5.470;2023-11-21T07:33:59;23.53;;;14.10;;
13720;SDS011;6932;51.438;5.470;2023-11-21T07:36:25;22.13;;;14.43;;
13720;SDS011;6932;51.438;5.470;2023-11-21T07:38:50;23.67;;;14.93;;
13720;SDS011;6932;51.438;5.470;2023-11-21T07:41:17;23.17;;;15.23;;
13720;SDS011;6932;51.438;5.470;2023-11-21T07:43:44;22.30;;;14.93;;
13720;SDS011;6932;51.438;5.470;2023-11-21T07:46:11;22.63;;;14.60;;
13720;SDS011;6932;51.438;5.470;2023-11-21T07:48:38;21.57;;;14.33;;
13720;SDS011;6932;51.438;5.470;2023-11-21T07:51:04;27.73;;;15.33;;
13720;SDS011;6932;51.438;5.470;2023-11-21T07:53:32;28.10;;;14.40;;
13720;SDS011;6932;51.438;5.470;2023-11-21T07:55:58;25.97;;;14.23;;
13720;SDS011;6932;51.438;5.470;2023-11-21T07:58:29;26.40;;;14.93;;
13720;SDS011;6932;51.438;5.470;2023-11-21T08:00:54;27.17;;;15.47;;
13720;SDS011;6932;51.438;5.470;2023-11-21T08:03:20;22.93;;;13.97;;
13720;SDS011;6932;51.438;5.470;2023-11-21T08:05:46;24.90;;;14.07;;
13720;SDS011;6932;51.438;5.470;2023-11-21T08:08:12;25.13;;;14.23;;
13720;SDS011;6932;51.438;5.470;2023-11-21T08:10:38;24.97;;;13.73;;
13720;SDS011;6932;51.438;5.470;2023-11-21T08:13:04;26.17;;;14.20;;
13720;SDS011;6932;51.438;5.470;2023-11-21T08:15:31;24.67;;;14.37;;
13720;SDS011;6932;51.438;5.470;2023-11-21T08:17:57;22.77;;;13.43;;
13720;SDS011;6932;51.438;5.470;2023-11-21T08:20:26;25.40;;;14.00;;
13720;SDS011;6932;51.438;5.470;2023-11-21T08:22:52;24.90;;;14.40;;
13720;SDS011;6932;51.438;5.470;2023-11-21T08:25:18;25.50;;;13.63;;
13720;SDS011;6932;51.438;5.470;2023-11-21T08:27:45;24.37;;;13.50;;
13720;SDS011;6932;51.438;5.470;2023-11-21T08:30:11;21.33;;;12.50;;
13720;SDS011;6932;51.438;5.470;2023-11-21T08:32:41;24.00;;;13.37;;
13720;SDS011;6932;51.438;5.470;2023-11-21T08:35:07;23.57;;;13.27;;
13720;SDS011;6932;51.438;5.470;2023-11-21T08:37:34;22.63;;;12.40;;
13720;SDS011;6932;51.438;5.470;2023-11-21T08:40:02;23.63;;;13.30;;
13720;SDS011;6932;51.438;5.470;2023-11-21T08:42:34;21.87;;;13.13;;
13720;SDS011;6932;51.438;5.470;2023-11-21T08:45:00;24.20;;;13.70;;
13720;SDS011;6932;51.438;5.470;2023-11-21T08:47:27;20.50;;;12.90;;
13720;SDS011;6932;51.438;5.470;2023-11-21T08:49:53;23.50;;;13.40;;
13720;SDS011;6932;51.438;5.470;2023-11-21T08:52:19;22.30;;;13.40;;
13720;SDS011;6932;51.438;5.470;2023-11-21T08:54:49;23.40;;;13.23;;
13720;SDS011;6932;51.438;5.470;2023-11-21T08:57:24;23.00;;;13.60;;
13720;SDS011;6932;51.438;5.470;2023-11-21T08:59:50;22.57;;;12.63;;
13720;SDS011;6932;51.438;5.470;2023-11-21T09:02:25;19.53;;;12.07;;
13720;SDS011;6932;51.438;5.470;2023-11-21T09:04:51;21.13;;;12.80;;
13720;SDS011;6932;51.438;5.470;2023-11-21T09:07:18;20.73;;;12.90;;
13720;SDS011;6932;51.438;5.470;2023-11-21T09:09:45;21.20;;;12.70;;
13720;SDS011;6932;51.438;5.470;2023-11-21T09:12:14;22.13;;;13.00;;
13720;SDS011;6932;51.438;5.470;2023-11-21T09:14:41;23.47;;;13.77;;
13720;SDS011;6932;51.438;5.470;2023-11-21T09:17:10;23.07;;;13.83;;
13720;SDS011;6932;51.438;5.470;2023-11-21T09:19:37;19.63;;;12.53;;
13720;SDS011;6932;51.438;5.470;2023-11-21T09:22:03;19.83;;;12.60;;
13720;SDS011;6932;51.438;5.470;2023-11-21T09:24:32;22.77;;;12.87;;
13720;SDS011;6932;51.438;5.470;2023-11-21T09:26:59;21.57;;;13.50;;
13720;SDS011;6932;51.438;5.470;2023-11-21T09:29:28;20.73;;;12.60;;
13720;SDS011;6932;51.438;5.470;2023-11-21T09:31:54;20.93;;;12.63;;
13720;SDS011;6932;51.438;5.470;2023-11-21T09:34:22;22.27;;;13.47;;
13720;SDS011;6932;51.438;5.470;2023-11-21T09:36:47;21.27;;;13.43;;
13720;SDS011;6932;51.438;5.470;2023-11-21T09:39:13;20.00;;;12.70;;
13720;SDS011;6932;51.438;5.470;2023-11-21T09:41:43;21.23;;;12.87;;
13720;SDS011;6932;51.438;5.470;2023-11-21T09:44:22;24.00;;;13.37;;
13720;SDS011;6932;51.438;5.470;2023-11-21T09:47:00;21.10;;;14.50;;
13720;SDS011;6932;51.438;5.470;2023-11-21T09:49:27;20.33;;;14.47;;
13720;SDS011;6932;51.438;5.470;2023-11-21T09:51:57;21.33;;;14.83;;
13720;SDS011;6932;51.438;5.470;2023-11-21T09:54:28;20.20;;;14.80;;
13720;SDS011;6932;51.438;5.470;2023-11-21T09:56:56;21.47;;;15.17;;
13720;SDS011;6932;51.438;5.470;2023-11-21T09:59:24;23.20;;;15.93;;
13720;SDS011;6932;51.438;5.470;2023-11-21T10:01:59;24.60;;;16.20;;
13720;SDS011;6932;51.438;5.470;2023-11-21T10:04:25;22.97;;;15.93;;
13720;SDS011;6932;51.438;5.470;2023-11-21T10:06:52;21.47;;;15.50;;
13720;SDS011;6932;51.438;5.470;2023-11-21T10:09:19;23.03;;;15.80;;
13720;SDS011;6932;51.438;5.470;2023-11-21T10:11:46;22.07;;;16.27;;
13720;SDS011;6932;51.438;5.470;2023-11-21T10:14:15;23.40;;;16.10;;
13720;SDS011;6932;51.438;5.470;2023-11-21T10:16:44;24.07;;;16.70;;
13720;SDS011;6932;51.438;5.470;2023-11-21T10:19:13;24.13;;;16.63;;
13720;SDS011;6932;51.438;5.470;2023-11-21T10:21:41;24.83;;;16.57;;
13720;SDS011;6932;51.438;5.470;2023-11-21T10:24:07;22.73;;;15.80;;
13720;SDS011;6932;51.438;5.470;2023-11-21T10:26:33;24.93;;;15.20;;
13720;SDS011;6932;51.438;5.470;2023-11-21T10:29:00;23.67;;;15.17;;
13720;SDS011;6932;51.438;5.470;2023-11-21T10:31:30;25.63;;;14.93;;
13720;SDS011;6932;51.438;5.470;2023-11-21T10:36:42;23.40;;;14.20;;
13720;SDS011;6932;51.438;5.470;2023-11-21T10:39:08;21.03;;;13.07;;
13720;SDS011;6932;51.438;5.470;2023-11-21T10:41:35;22.27;;;13.37;;
13720;SDS011;6932;51.438;5.470;2023-11-21T10:44:04;21.07;;;12.70;;
13720;SDS011;6932;51.438;5.470;2023-11-21T10:46:32;20.13;;;12.83;;
13720;SDS011;6932;51.438;5.470;2023-11-21T10:48:59;20.10;;;12.77;;
13720;SDS011;6932;51.438;5.470;2023-11-21T10:51:25;19.83;;;12.20;;
13720;SDS011;6932;51.438;5.470;2023-11-21T10:53:51;15.93;;;9.90;;
13720;SDS011;6932;51.438;5.470;2023-11-21T10:56:17;15.57;;;10.20;;
13720;SDS011;6932;51.438;5.470;2023-11-21T10:58:50;17.63;;;10.20;;
13720;SDS011;6932;51.438;5.470;2023-11-21T11:01:17;20.97;;;10.20;;
13720;SDS011;6932;51.438;5.470;2023-11-21T11:03:46;17.80;;;10.27;;
13720;SDS011;6932;51.438;5.470;2023-11-21T11:06:13;15.27;;;9.53;;
13720;SDS011;6932;51.438;5.470;2023-11-21T11:08:40;16.80;;;10.17;;
13720;SDS011;6932;51.438;5.470;2023-11-21T11:11:06;16.97;;;10.73;;
13720;SDS011;6932;51.438;5.470;2023-11-21T11:13:34;16.53;;;10.40;;
13720;SDS011;6932;51.438;5.470;2023-11-21T11:16:02;15.70;;;10.67;;
13720;SDS011;6932;51.438;5.470;2023-11-21T11:18:32;16.80;;;9.80;;
13720;SDS011;6932;51.438;5.470;2023-11-21T11:21:03;16.20;;;10.60;;
13720;SDS011;6932;51.438;5.470;2023-11-21T11:27:11;17.10;;;9.90;;
13720;SDS011;6932;51.438;5.470;2023-11-21T11:32:58;16.70;;;10.40;;
13720;SDS011;6932;51.438;5.470;2023-11-21T11:36:10;15.80;;;10.43;;
13720;SDS011;6932;51.438;5.470;2023-11-21T11:38:52;16.10;;;9.47;;
13720;SDS011;6932;51.438;5.470;2023-11-21T11:41:31;15.23;;;9.43;;
13720;SDS011;6932;51.438;5.470;2023-11-21T11:44:02;11.73;;;7.33;;
13720;SDS011;6932;51.438;5.470;2023-11-21T11:49:11;11.00;;;6.60;;
13720;SDS011;6932;51.438;5.470;2023-11-21T11:55:01;11.33;;;7.20;;
13720;SDS011;6932;51.438;5.470;2023-11-21T11:57:29;14.33;;;8.13;;
13720;SDS011;6932;51.438;5.470;2023-11-21T12:02:53;13.37;;;8.13;;
13720;SDS011;6932;51.438;5.470;2023-11-21T12:05:25;14.27;;;8.20;;
13720;SDS011;6932;51.438;5.470;2023-11-21T12:07:58;13.00;;;8.00;;
13720;SDS011;6932;51.438;5.470;2023-11-21T12:10:28;12.23;;;7.87;;
13720;SDS011;6932;51.438;5.470;2023-11-21T12:12:57;14.67;;;8.20;;
13720;SDS011;6932;51.438;5.470;2023-11-21T12:15:24;13.57;;;8.37;;
13720;SDS011;6932;51.438;5.470;2023-11-21T12:17:51;13.37;;;8.20;;
13720;SDS011;6932;51.438;5.470;2023-11-21T12:20:18;14.90;;;8.73;;
13720;SDS011;6932;51.438;5.470;2023-11-21T12:22:46;12.73;;;8.00;;
13720;SDS011;6932;51.438;5.470;2023-11-21T12:25:14;15.53;;;8.77;;
13720;SDS011;6932;51.438;5.470;2023-11-21T12:27:49;13.80;;;7.43;;
13720;SDS011;6932;51.438;5.470;2023-11-21T12:30:21;12.20;;;7.60;;
13720;SDS011;6932;51.438;5.470;2023-11-21T12:32:52;12.73;;;7.53;;
13720;SDS011;6932;51.438;5.470;2023-11-21T12:35:21;11.40;;;7.40;;
13720;SDS011;6932;51.438;5.470;2023-11-21T12:37:51;12.63;;;7.60;;
13720;SDS011;6932;51.438;5.470;2023-11-21T12:40:18;13.43;;;8.27;;
13720;SDS011;6932;51.438;5.470;2023-11-21T12:42:45;14.47;;;8.20;;
13720;SDS011;6932;51.438;5.470;2023-11-21T12:47:46;13.67;;;8.50;;
13720;SDS011;6932;51.438;5.470;2023-11-21T12:50:20;13.33;;;8.47;;
13720;SDS011;6932;51.438;5.470;2023-11-21T12:52:53;13.20;;;8.27;;
13720;SDS011;6932;51.438;5.470;2023-11-21T12:55:24;13.30;;;8.33;;
13720;SDS011;6932;51.438;5.470;2023-11-21T12:57:54;12.77;;;7.90;;
13720;SDS011;6932;51.438;5.470;2023-11-21T13:00:54;11.90;;;7.70;;
13720;SDS011;6932;51.438;5.470;2023-11-21T13:03:14;13.80;;;8.10;;
13720;SDS011;6932;51.438;5.470;2023-11-21T13:05:43;13.13;;;7.87;;
13720;SDS011;6932;51.438;5.470;2023-11-21T13:08:16;13.30;;;8.70;;
13720;SDS011;6932;51.438;5.470;2023-11-21T13:10:48;12.10;;;7.83;;
13720;SDS011;6932;51.438;5.470;2023-11-21T13:13:19;14.33;;;8.30;;
13720;SDS011;6932;51.438;5.470;2023-11-21T13:15:49;12.37;;;7.70;;
13720;SDS011;6932;51.438;5.470;2023-11-21T13:18:25;13.10;;;8.20;;
13720;SDS011;6932;51.438;5.470;2023-11-21T13:20:53;13.37;;;8.40;;
13720;SDS011;6932;51.438;5.470;2023-11-21T13:23:20;12.60;;;8.17;;
13720;SDS011;6932;51.438;5.470;2023-11-21T13:25:47;12.93;;;8.53;;
13720;SDS011;6932;51.438;5.470;2023-11-21T13:28:14;12.77;;;8.23;;
13720;SDS011;6932;51.438;5.470;2023-11-21T13:30:41;11.73;;;7.53;;
13720;SDS011;6932;51.438;5.470;2023-11-21T13:33:07;12.50;;;7.97;;
13720;SDS011;6932;51.438;5.470;2023-11-21T13:35:35;13.33;;;8.70;;
13720;SDS011;6932;51.438;5.470;2023-11-21T13:38:07;13.10;;;8.50;;
13720;SDS011;6932;51.438;5.470;2023-11-21T13:40:37;13.03;;;8.23;;
13720;SDS011;6932;51.438;5.470;2023-11-21T13:43:09;13.37;;;8.87;;
13720;SDS011;6932;51.438;5.470;2023-11-21T13:45:40;14.10;;;8.60;;
13720;SDS011;6932;51.438;5.470;2023-11-21T13:48:07;12.70;;;8.63;;
13720;SDS011;6932;51.438;5.470;2023-11-21T13:50:45;12.70;;;8.53;;
13720;SDS011;6932;51.438;5.470;2023-11-21T13:53:23;13.80;;;8.90;;
13720;SDS011;6932;51.438;5.470;2023-11-21T13:55:52;13.83;;;8.70;;
13720;SDS011;6932;51.438;5.470;2023-11-21T13:58:19;12.80;;;8.10;;
13720;SDS011;6932;51.438;5.470;2023-11-21T14:01:04;12.73;;;8.17;;
13720;SDS011;6932;51.438;5.470;2023-11-21T14:03:33;13.27;;;8.43;;
13720;SDS011;6932;51.438;5.470;2023-11-21T14:06:09;13.10;;;8.43;;
13720;SDS011;6932;51.438;5.470;2023-11-21T14:08:40;13.53;;;8.60;;
13720;SDS011;6932;51.438;5.470;2023-11-21T14:11:06;14.50;;;8.57;;
13720;SDS011;6932;51.438;5.470;2023-11-21T14:13:33;12.67;;;8.50;;
13720;SDS011;6932;51.438;5.470;2023-11-21T14:15:58;12.93;;;8.27;;
13720;SDS011;6932;51.438;5.470;2023-11-21T14:18:26;13.20;;;9.00;;
13720;SDS011;6932;51.438;5.470;2023-11-21T14:20:55;13.33;;;8.90;;
13720;SDS011;6932;51.438;5.470;2023-11-21T14:23:21;12.90;;;8.43;;
13720;SDS011;6932;51.438;5.470;2023-11-21T14:25:48;13.63;;;8.70;;
13720;SDS011;6932;51.438;5.470;2023-11-21T14:28:17;14.57;;;8.70;;
13720;SDS011;6932;51.438;5.470;2023-11-21T14:30:44;12.10;;;7.93;;
13720;SDS011;6932;51.438;5.470;2023-11-21T14:33:13;12.53;;;8.23;;
13720;SDS011;6932;51.438;5.470;2023-11-21T14:35:41;11.77;;;8.20;;
13720;SDS011;6932;51.438;5.470;2023-11-21T14:38:08;12.97;;;8.33;;
13720;SDS011;6932;51.438;5.470;2023-11-21T14:40:35;13.47;;;8.77;;
13720;SDS011;6932;51.438;5.470;2023-11-21T14:43:04;13.27;;;8.37;;
13720;SDS011;6932;51.438;5.470;2023-11-21T14:45:33;12.73;;;7.93;;
13720;SDS011;6932;51.438;5.470;2023-11-21T14:47:59;12.73;;;8.23;;
13720;SDS011;6932;51.438;5.470;2023-11-21T14:50:40;13.10;;;7.90;;
13720;SDS011;6932;51.438;5.470;2023-11-21T14:53:07;13.43;;;8.20;;
13720;SDS011;6932;51.438;5.470;2023-11-21T14:55:36;12.97;;;8.30;;
13720;SDS011;6932;51.438;5.470;2023-11-21T14:58:17;12.33;;;8.00;;
13720;SDS011;6932;51.438;5.470;2023-11-21T15:00:57;12.03;;;7.67;;
13720;SDS011;6932;51.438;5.470;2023-11-21T15:03:25;12.13;;;7.50;;
13720;SDS011;6932;51.438;5.470;2023-11-21T15:05:55;11.93;;;7.17;;
13720;SDS011;6932;51.438;5.470;2023-11-21T15:08:22;11.30;;;7.30;;